Time;durP1;ratioP1;P1;durP2;ratioP2;P2;SDS_P1;SDS_P2;PMS_P1;PMS_P2;Temp;Humidity;BMP_temperature;BMP_pressure;BME280_temperature;BME280_humidity;BME280_pressure;Samples;Min_cycle;Max_cycle;Signal;HPM_P1;HPM_P2
2022/12/24 00:00:15;;;;;;;91.22;39.45;;;;;;;8.03;70.22;100549.28;5048294;28;20031;-76
2022/12/24 00:02:41;;;;;;;91.57;39.08;;;;;;;8.03;70.37;100551.13;5048441;28;20134;-76
2022/12/24 00:05:07;;;;;;;82.43;40.58;;;;;;;8.05;70.66;100546.50;5047946;28;20086;-76
2022/12/24 00:07:32;;;;;;;95.68;46.30;;;;;;;8.07;70.82;100552.63;5048247;28;20112;-75
2022/12/24 00:09:58;;;;;;;90.90;40.22;;;;;;;8.00;70.76;100540.63;5049003;28;20112;-76
2022/12/24 00:12:23;;;;;;;76.53;39.50;;;;;;;7.80;71.52;100501.06;5048282;28;20029;-77
2022/12/24 00:14:50;;;;;;;74.38;39.10;;;;;;;8.00;71.13;100536.13;5048539;28;20040;-75
2022/12/24 00:17:15;;;;;;;76.00;38.15;;;;;;;7.84;71.18;100506.06;5048417;28;20468;-76
2022/12/24 00:19:42;;;;;;;99.55;47.90;;;;;;;8.10;70.37;100544.34;5052136;28;20202;-76
2022/12/24 00:22:08;;;;;;;86.40;44.28;;;;;;;8.06;70.25;100551.75;5055794;28;20039;-76
2022/12/24 00:24:33;;;;;;;87.05;45.20;;;;;;;8.08;70.22;100551.63;5037178;28;20037;-77
2022/12/24 00:26:58;;;;;;;85.93;43.33;;;;;;;8.08;70.60;100554.31;5048520;28;20099;-76
2022/12/24 00:29:24;;;;;;;79.05;40.80;;;;;;;7.83;70.50;100508.88;5049384;28;20115;-76
2022/12/24 00:31:49;;;;;;;80.03;43.53;;;;;;;8.03;70.04;100551.13;5052296;28;20029;-75
2022/12/24 00:34:15;;;;;;;79.20;42.13;;;;;;;7.98;70.65;100555.97;5052321;28;20028;-74
2022/12/24 00:36:40;;;;;;;94.15;44.20;;;;;;;7.99;70.74;100555.81;5051828;28;20383;-75
2022/12/24 00:39:06;;;;;;;108.55;51.42;;;;;;;8.00;70.47;100559.38;5051531;28;20462;-76
2022/12/24 00:41:31;;;;;;;99.18;53.90;;;;;;;7.90;69.85;100526.16;5051746;28;20033;-76
2022/12/24 00:44:00;;;;;;;99.70;50.60;;;;;;;7.96;70.19;100537.31;5051465;28;20480;-75
2022/12/24 00:46:28;;;;;;;98.60;50.47;;;;;;;8.01;69.74;100550.38;5051499;28;20441;-75
2022/12/24 00:48:54;;;;;;;94.07;52.55;;;;;;;7.92;69.78;100543.84;5051609;28;20140;-75
2022/12/24 00:51:20;;;;;;;108.90;50.30;;;;;;;7.92;70.33;100526.94;5052102;28;20033;-77
2022/12/24 00:53:46;;;;;;;89.85;51.00;;;;;;;8.01;70.43;100534.31;5051773;28;20119;-75
2022/12/24 00:56:11;;;;;;;120.88;54.97;;;;;;;7.95;70.06;100532.06;5051565;28;20096;-76
2022/12/24 00:58:37;;;;;;;96.88;50.17;;;;;;;7.94;69.94;100535.72;5051461;28;20033;-75
2022/12/24 01:01:03;;;;;;;87.57;50.05;;;;;;;7.77;70.78;100494.06;5051062;28;20021;-75
2022/12/24 01:03:35;;;;;;;92.72;50.08;;;;;;;7.98;70.45;100524.66;5051628;28;20029;-74
2022/12/24 01:06:01;;;;;;;98.13;51.70;;;;;;;7.96;70.78;100523.06;5051250;28;20425;-74
2022/12/24 01:08:27;;;;;;;95.97;52.22;;;;;;;7.91;70.64;100512.69;5051386;28;20082;-74
2022/12/24 01:10:52;;;;;;;96.43;50.90;;;;;;;7.99;70.85;100520.16;5051043;28;20436;-75
2022/12/24 01:13:18;;;;;;;85.95;49.35;;;;;;;7.98;70.39;100515.78;5050840;28;20037;-76
2022/12/24 01:15:43;;;;;;;115.38;52.95;;;;;;;8.02;70.54;100525.28;5051671;28;20049;-75
2022/12/24 01:18:08;;;;;;;88.93;51.08;;;;;;;8.02;70.26;100523.47;5051680;28;20070;-76
2022/12/24 01:20:34;;;;;;;91.53;49.70;;;;;;;8.05;70.84;100519.72;5050756;28;20082;-75
2022/12/24 01:22:59;;;;;;;87.50;49.90;;;;;;;8.03;70.76;100516.28;5051623;28;20077;-75
2022/12/24 01:25:25;;;;;;;90.38;49.58;;;;;;;8.04;70.70;100524.19;5056254;28;20093;-75
2022/12/24 01:27:50;;;;;;;90.35;50.28;;;;;;;7.93;71.11;100500.03;5057489;28;20045;-77
2022/12/24 01:30:15;;;;;;;85.53;52.70;;;;;;;7.89;71.24;100501.22;5052454;28;20033;-75
2022/12/24 01:32:41;;;;;;;96.20;51.38;;;;;;;7.98;71.65;100507.75;5051364;28;20021;-76
2022/12/24 01:35:08;;;;;;;116.65;53.40;;;;;;;8.00;71.42;100517.38;5052323;28;20032;-75
2022/12/24 01:37:34;;;;;;;97.45;52.90;;;;;;;7.99;71.74;100504.09;5051725;28;20063;-76
2022/12/24 01:45:50;;;;;;;101.78;55.60;;;;;;;7.96;71.98;100510.53;5028300;28;20456;-76
2022/12/24 01:48:20;;;;;;;119.28;67.18;;;;;;;8.06;71.92;100505.34;5028240;28;20068;-76
2022/12/24 01:50:47;;;;;;;109.07;61.53;;;;;;;8.02;71.74;100506.53;5027704;28;20140;-75
2022/12/24 01:53:14;;;;;;;135.55;78.65;;;;;;;8.11;72.28;100511.22;5028047;28;20357;-75
2022/12/24 01:55:41;;;;;;;266.65;124.32;;;;;;;8.13;71.95;100509.31;5028092;28;20382;-74
2022/12/24 01:58:09;;;;;;;130.07;78.85;;;;;;;7.97;71.73;100476.56;5027681;28;20037;-74
2022/12/24 02:00:35;;;;;;;129.07;76.28;;;;;;;7.97;71.57;100474.75;5027692;28;20029;-77
2022/12/24 02:03:01;;;;;;;134.07;79.93;;;;;;;8.15;71.69;100513.59;5027447;28;20080;-76
2022/12/24 02:05:50;;;;;;;146.75;80.72;;;;;;;8.15;72.08;100510.91;5027855;28;20033;-76
2022/12/24 02:08:16;;;;;;;148.23;83.18;;;;;;;8.16;72.04;100503.72;5028062;28;20029;-76
2022/12/24 02:10:41;;;;;;;140.15;80.47;;;;;;;8.18;71.60;100510.69;5028608;28;20042;-74
2022/12/24 02:13:07;;;;;;;135.32;81.50;;;;;;;8.16;72.00;100506.41;5027705;28;20032;-75
2022/12/24 02:15:43;;;;;;;133.73;80.53;;;;;;;8.13;71.32;100509.31;5011164;28;20037;-75
2022/12/24 02:18:40;;;;;;;135.63;81.45;;;;;;;8.12;71.45;100510.28;5049117;28;20504;-76
2022/12/24 02:21:27;;;;;;;131.70;76.55;;;;;;;8.11;71.65;100503.19;5049692;28;20507;-76
2022/12/24 02:24:31;;;;;;;128.23;74.97;;;;;;;7.88;72.12;100448.66;5050111;28;20036;-75
2022/12/24 02:27:13;;;;;;;119.15;71.28;;;;;;;8.08;72.00;100500.72;5051388;28;20112;-76
2022/12/24 02:30:32;;;;;;;131.50;73.30;;;;;;;8.02;71.77;100503.88;5057516;28;20029;-76
2022/12/24 02:33:16;;;;;;;120.13;65.53;;;;;;;7.96;72.35;100496.28;5011088;28;20046;-75
2022/12/24 02:35:57;;;;;;;115.82;67.53;;;;;;;7.93;72.23;100491.16;5007503;28;20072;-75
2022/12/24 02:38:31;;;;;;;107.55;62.90;;;;;;;7.94;72.63;100500.91;5007178;28;20040;-74
2022/12/24 02:41:09;;;;;;;97.30;58.70;;;;;;;7.72;73.00;100464.09;5007474;28;20045;-76
2022/12/24 02:43:41;;;;;;;100.75;60.13;;;;;;;7.87;72.87;100496.94;5007322;28;20107;-75
2022/12/24 02:46:17;;;;;;;100.13;57.53;;;;;;;7.97;72.70;100514.06;5008083;28;20033;-75
2022/12/24 02:48:46;;;;;;;90.65;54.03;;;;;;;7.96;73.12;100509.66;5008882;28;20152;-76
2022/12/24 02:51:12;;;;;;;88.68;53.85;;;;;;;7.97;73.23;100511.38;4990921;28;20054;-76
2022/12/24 02:53:38;;;;;;;108.78;57.15;;;;;;;7.99;72.80;100502.25;5006960;28;20149;-75
2022/12/24 02:56:16;;;;;;;102.68;53.92;;;;;;;8.04;72.54;100507.31;5006977;28;20533;-75
2022/12/24 02:58:47;;;;;;;99.15;53.78;;;;;;;8.04;72.51;100518.03;5006682;28;20379;-76
2022/12/24 03:01:24;;;;;;;91.43;53.67;;;;;;;7.99;72.75;100510.31;5006994;28;20049;-75
2022/12/24 03:04:11;;;;;;;99.57;54.75;;;;;;;8.03;72.60;100513.63;5008029;28;20076;-75
2022/12/24 03:06:46;;;;;;;108.63;56.72;;;;;;;7.98;72.38;100513.94;5023235;28;20044;-75
2022/12/24 03:09:21;;;;;;;97.70;56.03;;;;;;;7.95;72.20;100511.47;5050759;28;20071;-75
2022/12/24 03:11:59;;;;;;;108.72;54.03;;;;;;;7.75;72.65;100473.75;5049784;28;20504;-76
2022/12/24 03:14:27;;;;;;;100.07;57.13;;;;;;;7.98;72.34;100523.81;5049485;28;20035;-74
2022/12/24 03:16:53;;;;;;;107.05;60.65;;;;;;;7.83;72.30;100498.97;5047993;28;20028;-75
2022/12/24 03:19:20;;;;;;;95.45;57.95;;;;;;;7.95;72.15;100518.69;5048582;28;20110;-75
2022/12/24 03:21:47;;;;;;;104.20;59.35;;;;;;;7.94;72.59;100517.81;5048543;28;20032;-74
2022/12/24 03:24:12;;;;;;;105.75;56.63;;;;;;;7.99;72.28;100526.38;5049407;28;20033;-76
2022/12/24 03:26:39;;;;;;;95.93;58.67;;;;;;;8.02;71.65;100514.56;5048936;28;20116;-77
2022/12/24 03:29:08;;;;;;;111.50;60.63;;;;;;;7.88;72.13;100512.91;5049267;28;20028;-77
2022/12/24 03:31:48;;;;;;;122.60;69.07;;;;;;;7.95;72.82;100502.63;5053001;28;20573;-76
2022/12/24 03:34:14;;;;;;;101.30;60.85;;;;;;;7.91;72.72;100503.81;5056916;28;20067;-75
2022/12/24 03:36:41;;;;;;;97.93;57.05;;;;;;;7.93;72.93;100510.75;5052154;28;20021;-76
2022/12/24 03:39:07;;;;;;;110.85;61.20;;;;;;;7.88;72.27;100502.19;5048790;28;20032;-75
2022/12/24 03:41:33;;;;;;;104.30;60.30;;;;;;;7.84;72.21;100502.50;5048819;28;20060;-76
2022/12/24 03:43:58;;;;;;;100.90;57.25;;;;;;;7.59;72.37;100461.47;5048894;28;20146;-75
2022/12/24 03:46:24;;;;;;;103.47;57.97;;;;;;;7.80;72.49;100523.28;5048439;28;20021;-75
2022/12/24 03:48:49;;;;;;;101.97;58.63;;;;;;;7.77;72.66;100526.19;5049044;28;20049;-75
2022/12/24 03:51:23;;;;;;;98.30;60.17;;;;;;;7.42;72.97;100458.28;5048527;28;20029;-75
2022/12/24 03:53:48;;;;;;;106.80;57.55;;;;;;;7.77;73.12;100522.69;5048701;28;20039;-74
2022/12/24 03:56:14;;;;;;;96.78;59.08;;;;;;;7.65;73.24;100492.28;5048948;28;20020;-74
2022/12/24 03:58:40;;;;;;;101.78;58.30;;;;;;;7.71;72.73;100520.41;5048716;28;20021;-75
2022/12/24 04:01:05;;;;;;;101.50;59.08;;;;;;;7.63;73.03;100512.94;5049144;28;20028;-76
2022/12/24 04:03:31;;;;;;;92.05;55.08;;;;;;;7.40;73.65;100474.44;5048441;28;20029;-75
2022/12/24 04:06:14;;;;;;;96.13;53.63;;;;;;;7.57;73.93;100511.56;5052262;28;20025;-75
2022/12/24 04:08:40;;;;;;;96.57;57.28;;;;;;;7.58;74.18;100521.28;5052664;28;20037;-76
2022/12/24 04:11:08;;;;;;;106.65;59.20;;;;;;;7.59;74.36;100523.00;5052690;28;20113;-75
2022/12/24 04:13:34;;;;;;;107.63;56.30;;;;;;;7.59;73.87;100531.03;5052921;28;20112;-75
2022/12/24 04:16:03;;;;;;;118.20;58.95;;;;;;;7.56;73.25;100523.22;5052107;28;20100;-75
2022/12/24 04:18:28;;;;;;;96.85;56.35;;;;;;;7.55;73.36;100518.81;5052049;28;20124;-75
2022/12/24 04:20:54;;;;;;;109.57;56.92;;;;;;;7.54;72.89;100519.81;5052033;28;20105;-75
2022/12/24 04:23:20;;;;;;;104.32;57.60;;;;;;;7.54;71.98;100524.31;5053045;28;20036;-75
2022/12/24 04:25:46;;;;;;;96.68;54.60;;;;;;;7.45;72.18;100517.78;5052259;28;20029;-75
2022/12/24 04:28:11;;;;;;;97.07;56.47;;;;;;;7.07;71.94;100482.13;5052171;28;20112;-75
2022/12/24 04:30:38;;;;;;;103.05;59.58;;;;;;;7.30;72.16;100513.50;5052484;28;20031;-76
2022/12/24 04:33:04;;;;;;;117.30;67.47;;;;;;;7.22;71.79;100510.50;5051951;28;20134;-75
2022/12/24 04:35:30;;;;;;;111.93;62.33;;;;;;;7.17;72.34;100509.97;5056506;28;20477;-76
2022/12/24 04:37:55;;;;;;;130.38;70.40;;;;;;;7.22;72.54;100528.34;5058206;28;20074;-76
2022/12/24 04:40:20;;;;;;;135.95;73.90;;;;;;;7.01;72.34;100494.13;5055332;28;20029;-78
2022/12/24 04:42:46;;;;;;;129.02;74.80;;;;;;;7.18;71.90;100510.81;5052111;28;20040;-77
2022/12/24 04:45:11;;;;;;;120.57;68.35;;;;;;;7.26;72.07;100520.03;5052810;28;20462;-76
2022/12/24 04:47:37;;;;;;;106.78;63.55;;;;;;;7.31;72.60;100517.88;5051793;28;20083;-76
2022/12/24 04:50:03;;;;;;;90.55;55.60;;;;;;;7.39;72.54;100520.88;5051710;28;20155;-75
2022/12/24 04:52:28;;;;;;;110.78;58.47;;;;;;;7.44;73.15;100529.44;5066002;28;20041;-75
2022/12/24 04:54:53;;;;;;;93.30;55.88;;;;;;;7.43;73.54;100527.72;5051414;28;20086;-75
2022/12/24 04:57:19;;;;;;;101.07;56.97;;;;;;;7.43;73.17;100532.25;5051896;28;20103;-75
2022/12/24 04:59:45;;;;;;;110.22;56.70;;;;;;;7.25;74.30;100496.06;5051506;28;20025;-77
2022/12/24 05:02:11;;;;;;;97.40;53.35;;;;;;;7.40;74.64;100533.28;5048700;28;20059;-75
2022/12/24 05:04:36;;;;;;;89.10;50.00;;;;;;;7.57;74.65;100530.31;5050622;28;20021;-76
2022/12/24 05:07:02;;;;;;;102.53;51.10;;;;;;;7.58;74.24;100521.28;5051871;28;20078;-75
2022/12/24 05:09:27;;;;;;;101.32;52.97;;;;;;;7.64;73.82;100536.09;5050443;28;20065;-75
2022/12/24 05:11:53;;;;;;;111.05;56.22;;;;;;;7.60;73.57;100529.22;5051935;28;20047;-76
2022/12/24 05:14:18;;;;;;;99.80;55.38;;;;;;;7.31;72.83;100488.44;5051683;28;20530;-77
2022/12/24 05:16:44;;;;;;;117.93;55.55;;;;;;;7.56;72.23;100531.25;5050232;28;20025;-76
2022/12/24 05:19:09;;;;;;;104.15;55.83;;;;;;;7.53;72.42;100538.63;5049697;28;20104;-76
2022/12/24 05:21:35;;;;;;;93.75;52.25;;;;;;;7.52;72.42;100543.13;5051669;28;20531;-78
2022/12/24 05:26:48;;;;;;;90.20;48.67;;;;;;;7.60;73.31;100546.16;5057395;28;20055;-81
2022/12/24 05:29:14;;;;;;;93.93;51.67;;;;;;;7.52;73.21;100534.28;5052448;28;20664;-78
2022/12/24 05:31:41;;;;;;;97.72;51.80;;;;;;;7.52;73.76;100543.13;5051827;28;20021;-79
2022/12/24 05:34:07;;;;;;;92.70;52.63;;;;;;;7.50;74.01;100539.72;5051227;28;20021;-76
2022/12/24 05:36:32;;;;;;;100.50;53.95;;;;;;;7.24;73.93;100500.56;5051319;28;20036;-76
2022/12/24 05:38:58;;;;;;;95.25;55.30;;;;;;;7.55;74.34;100545.59;5056157;28;20033;-78
2022/12/24 05:41:24;;;;;;;89.28;49.95;;;;;;;7.56;74.74;100549.13;5059321;28;20025;-77
2022/12/24 05:43:50;;;;;;;83.82;52.85;;;;;;;7.41;75.42;100526.97;5054188;28;20090;-75
2022/12/24 05:46:18;;;;;;;84.43;50.90;;;;;;;7.55;75.77;100548.25;5050795;28;20040;-76
2022/12/24 05:48:44;;;;;;;83.30;49.78;;;;;;;7.44;75.68;100533.94;5051126;28;20053;-76
2022/12/24 05:51:12;;;;;;;88.75;51.33;;;;;;;7.49;76.02;100553.22;5050766;28;20474;-76
2022/12/24 05:53:38;;;;;;;92.70;50.10;;;;;;;7.49;76.73;100553.22;5050481;28;20040;-77
2022/12/24 05:56:04;;;;;;;84.97;48.95;;;;;;;7.52;76.86;100561.84;5050473;28;20031;-76
2022/12/24 05:58:30;;;;;;;84.43;46.55;;;;;;;7.52;76.89;100561.84;5050190;28;20086;-75
2022/12/24 06:00:56;;;;;;;85.95;47.92;;;;;;;7.48;77.14;100555.03;5050208;28;20115;-77
2022/12/24 06:03:22;;;;;;;74.85;45.13;;;;;;;7.44;76.82;100555.34;5050131;28;20401;-76
2022/12/24 06:05:47;;;;;;;91.20;48.40;;;;;;;7.46;77.37;100564.97;5050642;28;20472;-76
2022/12/24 06:08:12;;;;;;;80.68;44.45;;;;;;;7.43;77.39;100562.50;5049033;28;20624;-75
2022/12/24 06:10:38;;;;;;;83.05;46.08;;;;;;;7.42;77.40;100568.84;5050064;28;20021;-75
2022/12/24 06:13:03;;;;;;;78.63;45.28;;;;;;;7.43;77.56;100559.81;5049937;28;20765;-76
2022/12/24 06:15:29;;;;;;;81.57;45.15;;;;;;;7.41;77.92;100567.13;5049732;28;20135;-76
2022/12/24 06:17:54;;;;;;;93.43;51.70;;;;;;;7.51;77.59;100573.56;5049554;28;20029;-76
2022/12/24 06:20:20;;;;;;;85.65;48.83;;;;;;;7.55;77.49;100572.34;5049765;28;20039;-76
2022/12/24 06:22:45;;;;;;;82.25;47.30;;;;;;;7.41;77.46;100532.34;5048849;28;20029;-75
2022/12/24 06:25:11;;;;;;;73.93;43.95;;;;;;;7.37;77.80;100513.94;5049759;28;20159;-77
2022/12/24 06:27:36;;;;;;;108.85;56.03;;;;;;;7.67;77.95;100552.75;5049955;28;20104;-75
2022/12/24 06:30:02;;;;;;;87.60;48.40;;;;;;;7.79;77.78;100556.41;5049611;28;20025;-77
2022/12/24 06:32:28;;;;;;;91.03;48.78;;;;;;;7.82;78.00;100555.31;5050022;28;20033;-77
2022/12/24 06:34:53;;;;;;;94.55;53.40;;;;;;;7.61;77.36;100504.19;5049790;28;20039;-77
2022/12/24 06:37:19;;;;;;;85.95;48.97;;;;;;;7.85;77.18;100544.41;5049408;28;20033;-75
2022/12/24 06:39:45;;;;;;;92.20;54.50;;;;;;;8.07;77.31;100555.28;5049560;28;20036;-76
2022/12/24 06:42:12;;;;;;;86.88;49.17;;;;;;;8.11;77.15;100557.63;5047317;28;20508;-75
2022/12/24 06:44:38;;;;;;;94.47;49.50;;;;;;;8.15;76.61;100558.25;5052108;28;20057;-74
2022/12/24 06:47:03;;;;;;;86.50;49.03;;;;;;;8.18;76.10;100558.03;5055408;28;20032;-76
2022/12/24 06:49:29;;;;;;;86.70;50.53;;;;;;;8.28;76.29;100569.84;5050930;28;20056;-76
2022/12/24 06:51:54;;;;;;;81.25;46.55;;;;;;;8.35;76.03;100556.84;5049304;28;20075;-74
2022/12/24 06:54:19;;;;;;;89.13;49.92;;;;;;;8.32;75.41;100565.13;5049656;28;20021;-76
2022/12/24 06:56:45;;;;;;;96.60;48.38;;;;;;;8.34;75.57;100564.03;5049727;28;20178;-77
2022/12/24 06:59:10;;;;;;;92.30;48.97;;;;;;;8.37;75.80;100562.94;5050279;28;20488;-77
2022/12/24 07:01:36;;;;;;;88.45;49.20;;;;;;;8.44;75.50;100567.72;5049822;28;20017;-76
2022/12/24 07:04:01;;;;;;;90.85;50.38;;;;;;;8.29;75.46;100539.38;5050045;28;20061;-76
2022/12/24 07:06:28;;;;;;;79.65;46.42;;;;;;;8.53;75.32;100575.09;5049866;28;20025;-76
2022/12/24 07:08:54;;;;;;;96.43;49.63;;;;;;;8.60;75.71;100576.34;5047879;28;20029;-76
2022/12/24 07:11:20;;;;;;;81.65;48.90;;;;;;;8.59;75.35;100558.56;5049231;28;20082;-77
2022/12/24 07:13:46;;;;;;;80.28;47.22;;;;;;;8.72;75.58;100572.75;5048916;28;20120;-77
2022/12/24 07:16:12;;;;;;;86.78;50.28;;;;;;;8.74;75.39;100572.66;5049083;28;20470;-75
2022/12/24 07:18:37;;;;;;;92.93;50.53;;;;;;;8.81;75.08;100576.56;5049161;28;20036;-76
2022/12/24 07:21:04;;;;;;;94.72;52.72;;;;;;;8.57;75.12;100528.34;5049147;28;20029;-75
2022/12/24 07:23:30;;;;;;;84.53;51.35;;;;;;;8.92;75.31;100575.78;5050929;28;20033;-76
2022/12/24 07:26:02;;;;;;;77.68;48.70;;;;;;;8.89;75.17;100559.94;5056032;28;20099;-75
2022/12/24 07:28:28;;;;;;;88.53;50.35;;;;;;;9.00;75.25;100568.00;5055478;28;20041;-76
2022/12/24 07:30:55;;;;;;;100.30;54.92;;;;;;;9.06;75.35;100573.78;5049887;28;20043;-73
2022/12/24 07:33:20;;;;;;;90.90;53.33;;;;;;;9.07;75.02;100574.63;5048650;28;20044;-75
2022/12/24 07:35:46;;;;;;;85.72;53.13;;;;;;;8.99;75.65;100571.69;5048600;28;20404;-76
2022/12/24 07:38:11;;;;;;;84.10;51.15;;;;;;;8.88;75.57;100526.88;5048337;28;20052;-75
2022/12/24 07:40:36;;;;;;;79.28;48.22;;;;;;;9.19;75.36;100569.19;5052050;28;20463;-76
2022/12/24 07:43:02;;;;;;;79.57;48.45;;;;;;;9.26;75.24;100572.25;5053718;28;20452;-76
2022/12/24 07:45:27;;;;;;;78.63;48.55;;;;;;;9.30;75.17;100573.72;5059162;28;20470;-78
2022/12/24 07:47:53;;;;;;;81.00;47.25;;;;;;;9.37;75.24;100569.59;5058626;28;20164;-77
2022/12/24 07:50:18;;;;;;;86.72;49.80;;;;;;;9.39;75.30;100564.94;5055764;28;20256;-75
2022/12/24 07:52:44;;;;;;;84.40;50.53;;;;;;;9.35;74.97;100546.53;5052421;28;20452;-74
2022/12/24 07:55:09;;;;;;;77.75;49.88;;;;;;;9.22;74.77;100503.69;5050097;28;20119;-78
2022/12/24 07:57:35;;;;;;;84.38;50.83;;;;;;;9.57;74.85;100558.16;5050973;28;20503;-76
2022/12/24 08:00:00;;;;;;;84.15;47.63;;;;;;;9.68;74.71;100563.56;5052662;28;20029;-75
2022/12/24 08:02:25;;;;;;;91.60;51.85;;;;;;;9.77;74.71;100564.66;5052562;28;20116;-74
2022/12/24 08:04:51;;;;;;;129.07;65.78;;;;;;;9.90;74.06;100554.66;5052186;28;20414;-74
2022/12/24 08:07:16;;;;;;;99.38;56.53;;;;;;;10.01;74.36;100562.69;5052186;28;20068;-76
2022/12/24 08:09:43;;;;;;;94.70;57.75;;;;;;;9.99;74.03;100547.69;5052297;28;20048;-76
2022/12/24 08:12:08;;;;;;;96.90;60.33;;;;;;;10.17;73.78;100559.66;5052279;28;20032;-74
2022/12/24 08:14:34;;;;;;;83.65;52.97;;;;;;;10.28;73.43;100557.81;5052432;28;20029;-75
2022/12/24 08:16:59;;;;;;;82.20;49.88;;;;;;;10.19;73.59;100518.25;5050997;28;20095;-75
2022/12/24 08:19:25;;;;;;;83.95;44.33;;;;;;;10.53;73.03;100551.28;5052114;28;20063;-74
2022/12/24 08:21:50;;;;;;;74.10;46.83;;;;;;;10.60;72.93;100548.94;5051918;28;20045;-75
2022/12/24 08:24:15;;;;;;;74.60;45.92;;;;;;;10.61;72.76;100516.53;5051762;28;20032;-76
2022/12/24 08:26:41;;;;;;;72.57;44.55;;;;;;;10.86;72.30;100551.16;5051832;28;20059;-75
2022/12/24 08:29:06;;;;;;;71.03;43.33;;;;;;;10.76;72.09;100503.66;5032625;28;20053;-75
2022/12/24 08:31:35;;;;;;;73.75;44.25;;;;;;;11.04;71.43;100529.91;5051568;28;20028;-74
2022/12/24 08:34:06;;;;;;;71.28;42.70;;;;;;;11.12;71.51;100521.22;5051804;28;20072;-77
2022/12/24 08:36:33;;;;;;;74.40;45.83;;;;;;;11.32;71.00;100536.50;5051475;28;20024;-74
2022/12/24 08:39:02;;;;;;;69.28;39.42;;;;;;;11.28;70.67;100497.38;5051502;28;20377;-75
2022/12/24 08:41:28;;;;;;;67.43;38.78;;;;;;;11.58;70.87;100526.16;5051225;28;20070;-75
2022/12/24 08:43:54;;;;;;;70.75;39.25;;;;;;;11.61;69.71;100531.28;5051731;28;20033;-76
2022/12/24 08:46:19;;;;;;;69.35;39.50;;;;;;;11.53;69.90;100502.31;5052174;28;20025;-75
2022/12/24 08:48:44;;;;;;;69.60;39.08;;;;;;;11.79;69.45;100535.09;5056057;28;20420;-76
2022/12/24 08:51:11;;;;;;;76.15;41.88;;;;;;;11.91;68.88;100529.50;5053487;28;20033;-75
2022/12/24 08:53:37;;;;;;;84.40;42.80;;;;;;;11.81;68.73;100490.00;5051337;28;20029;-77
2022/12/24 08:56:05;;;;;;;82.32;40.70;;;;;;;12.12;67.84;100521.31;5051703;28;20459;-74
2022/12/24 08:58:31;;;;;;;76.82;38.70;;;;;;;11.99;68.01;100489.22;5051321;28;20416;-76
2022/12/24 09:00:57;;;;;;;84.43;46.22;;;;;;;12.28;67.02;100523.50;5051245;28;20059;-75
2022/12/24 09:03:22;;;;;;;85.88;40.80;;;;;;;12.36;66.86;100523.66;5051398;28;20104;-75
2022/12/24 09:05:48;;;;;;;78.70;38.50;;;;;;;12.44;66.87;100537.31;5051327;28;20105;-74
2022/12/24 09:08:13;;;;;;;69.13;37.92;;;;;;;12.53;66.58;100525.69;5051507;28;20064;-75
2022/12/24 09:10:38;;;;;;;73.63;37.65;;;;;;;12.67;66.02;100522.56;5051015;28;20056;-75
2022/12/24 09:13:04;;;;;;;88.47;41.00;;;;;;;12.82;65.90;100531.94;5051427;28;20033;-74
2022/12/24 09:15:29;;;;;;;65.40;37.05;;;;;;;12.83;65.29;100522.00;5050687;28;20029;-75
2022/12/24 09:17:55;;;;;;;94.65;41.90;;;;;;;12.99;64.73;100533.97;5051151;28;20083;-75
2022/12/24 09:20:20;;;;;;;65.38;34.33;;;;;;;13.06;64.29;100526.13;5050501;28;20029;-76
2022/12/24 09:22:46;;;;;;;56.58;30.90;;;;;;;13.11;63.84;100514.94;5051049;28;20028;-75
2022/12/24 09:25:11;;;;;;;58.00;33.17;;;;;;;13.05;63.83;100501.00;5050531;28;20032;-75
2022/12/24 09:27:37;;;;;;;59.00;28.85;;;;;;;13.16;63.36;100509.94;5051091;28;20044;-76
2022/12/24 09:30:04;;;;;;;49.10;25.58;;;;;;;13.25;63.38;100507.25;5048719;28;20120;-75
2022/12/24 09:32:29;;;;;;;50.63;28.05;;;;;;;13.31;63.48;100505.78;5050769;28;20029;-74
2022/12/24 09:34:55;;;;;;;47.20;25.50;;;;;;;13.42;62.79;100503.78;5050836;28;20384;-75
2022/12/24 09:37:20;;;;;;;37.47;23.20;;;;;;;13.44;62.43;100507.22;5050963;28;20053;-75
2022/12/24 09:39:45;;;;;;;46.88;24.88;;;;;;;13.41;62.67;100502.09;5050896;28;20040;-76
2022/12/24 09:42:50;;;;;;;44.80;25.42;;;;;;;13.36;62.57;100476.53;5050470;28;20033;-75
2022/12/24 09:45:30;;;;;;;53.10;27.60;;;;;;;13.56;62.40;100494.38;5050921;28;20147;-74
2022/12/24 09:48:02;;;;;;;42.83;25.25;;;;;;;13.60;62.20;100493.09;5050705;28;20052;-76
2022/12/24 09:50:42;;;;;;;53.15;27.00;;;;;;;13.66;62.25;100483.53;5053443;28;20160;-76
2022/12/24 09:53:20;;;;;;;45.17;24.25;;;;;;;13.69;61.63;100478.69;5054682;28;20040;-76
2022/12/24 09:55:54;;;;;;;108.95;32.25;;;;;;;13.58;62.07;100438.31;5052200;28;20075;-76
2022/12/24 09:58:32;;;;;;;60.65;24.55;;;;;;;13.77;61.97;100443.63;5050231;28;20032;-75
2022/12/24 10:00:58;;;;;;;42.92;24.77;;;;;;;14.02;61.36;100470.00;5050387;28;20036;-74
2022/12/24 10:03:23;;;;;;;52.10;26.05;;;;;;;14.09;61.19;100476.50;5049273;28;20683;-75
2022/12/24 10:06:07;;;;;;;54.50;26.60;;;;;;;14.14;60.92;100471.47;5049918;28;20029;-75
2022/12/24 10:09:00;;;;;;;58.90;27.42;;;;;;;14.38;60.70;100475.47;5052972;28;20094;-76
2022/12/24 10:12:13;;;;;;;46.10;23.98;;;;;;;14.45;60.44;100476.59;5054982;28;20472;-76
2022/12/24 10:14:53;;;;;;;38.70;24.77;;;;;;;14.23;60.47;100466.16;5001687;28;20667;-76
2022/12/24 10:17:21;;;;;;;46.33;24.92;;;;;;;14.16;60.39;100438.84;5007208;28;20038;-76
2022/12/24 10:19:53;;;;;;;42.63;23.70;;;;;;;14.36;60.46;100461.25;4991067;28;20045;-76
2022/12/24 10:22:51;;;;;;;43.70;23.38;;;;;;;14.31;60.00;100441.91;4990384;28;20061;-75
2022/12/24 10:25:23;;;;;;;59.63;22.77;;;;;;;14.49;60.12;100456.34;5007475;28;20049;-77
2022/12/24 10:27:51;;;;;;;44.78;24.15;;;;;;;14.54;59.85;100454.88;5007442;28;20110;-77
2022/12/24 10:30:19;;;;;;;85.15;53.55;;;;;;;14.58;59.83;100452.69;5007784;28;20053;-76
2022/12/24 10:32:50;;;;;;;44.97;26.02;;;;;;;14.63;59.73;100453.06;5006690;28;20049;-75
2022/12/24 10:35:16;;;;;;;49.33;25.83;;;;;;;14.64;59.44;100455.66;5007511;28;20026;-76
2022/12/24 10:37:44;;;;;;;41.83;22.73;;;;;;;14.73;59.45;100450.28;5004272;28;20444;-78
2022/12/24 10:40:27;;;;;;;36.33;22.35;;;;;;;14.73;59.47;100445.75;5003438;28;20045;-76
2022/12/24 10:42:53;;;;;;;39.40;23.10;;;;;;;14.78;58.94;100459.66;5006681;28;20113;-78
2022/12/24 10:45:21;;;;;;;40.90;22.40;;;;;;;14.88;58.90;100463.13;5016389;28;20040;-77
2022/12/24 10:47:49;;;;;;;42.92;21.65;;;;;;;14.90;58.47;100460.25;5045607;28;20420;-76
2022/12/24 10:50:30;;;;;;;50.42;21.95;;;;;;;14.99;58.32;100449.31;5048978;28;20064;-76
2022/12/24 10:53:05;;;;;;;53.80;23.48;;;;;;;15.02;57.97;100449.00;5053166;28;20040;-74
2022/12/24 10:55:31;;;;;;;46.75;23.30;;;;;;;15.02;58.20;100457.13;5053664;28;20068;-75
2022/12/24 10:58:05;;;;;;;47.88;24.08;;;;;;;15.17;57.92;100449.28;5057029;28;20033;-74
2022/12/24 11:00:32;;;;;;;40.28;24.50;;;;;;;15.20;57.87;100449.81;5049007;28;20020;-75
2022/12/24 11:03:16;;;;;;;43.95;24.65;;;;;;;15.27;57.61;100447.34;5068658;28;20024;-78
2022/12/24 11:05:41;;;;;;;38.65;21.80;;;;;;;15.17;57.80;100424.91;5069947;28;20031;-78
2022/12/24 11:08:12;;;;;;;49.47;21.45;;;;;;;15.32;57.66;100444.16;5062673;28;20037;-82
2022/12/24 11:10:59;;;;;;;40.10;21.05;;;;;;;15.39;57.76;100439.78;5050250;28;20040;-77
2022/12/24 11:13:29;;;;;;;39.55;21.65;;;;;;;15.48;57.04;100433.44;5048353;28;20119;-80
2022/12/24 11:16:05;;;;;;;39.97;20.88;;;;;;;15.49;57.21;100419.72;5049173;28;20095;-79
2022/12/24 11:18:33;;;;;;;35.22;19.65;;;;;;;15.51;57.09;100430.41;5048635;28;20447;-79
2022/12/24 11:21:00;;;;;;;33.55;19.95;;;;;;;15.57;56.53;100424.31;5048569;28;20044;-78
2022/12/24 11:23:27;;;;;;;33.75;19.10;;;;;;;15.72;56.51;100420.00;5048214;28;20029;-78
2022/12/24 11:25:55;;;;;;;33.15;19.48;;;;;;;15.93;56.15;100420.41;5049975;28;20041;-76